Terminal Aerodrome Forecast
Issued by NWS

Home | Current Version | Previous Version | Text Only | Print | Product List | Glossary On
Versions: 1 2 3 4 5 6 7 8 9 10 11 12 13 14 15 16 17 18 19 20 21
000
FTUS44 KBMX 252348 CCA
TAFMGM
TAF COR
KMGM 252348Z 2600/2624 09006KT P6SM -RA BKN004 OVC110
      TEMPO 2600/2604 SCT004 BKN012
     FM260400 11004KT P6SM SCT007 SCT015 BKN060
     FM261000 14008KT P6SM OVC015
      TEMPO 2610/2614 BKN004 OVC007
     FM261500 16008KT P6SM SCT025 SCT050
     FM261800 18008KT P6SM VCTS BKN035CB=

USA.gov is the U.S. government's official web portal to all federal, state and local government web resources and services.